Архив погоды в Сарапуле

Метеограмма Сарапул
Суббота, 18 Августа
Время местн. Темп Ветер Видим Явления Облачность нижн/средн/верх Атм. давл. Влжн Точка росы ВНГО R Сост. почвы Tg s
Напр Скр Прв ур.ст ур.м изм
04:00 +7.6° С 1 2 10 км - ясно 754 766 +0.6 96% +7° более 2.5 км - - - -
01:00 +9.2° С 1 2 10 км - ясно 753 765 +0.2 92% +8° более 2.5 км - - - -
Пятница, 17 Августа
Время местн. Темп Ветер Видим Явления Облачность нижн/средн/верх Атм. давл. Влжн Точка росы ВНГО R Сост. почвы Tg s
Напр Скр Прв ур.ст ур.м изм
22:00 +13.4° З,С-З 2 4 10 км - преимущественно облачно 753 765 +0.5 70% +8° - - - - -
19:00 +17.4° С 3 5 50 км - переменная облачность 753 764 +0.2 43% +4.6° 1 км 0 - - -
16:00 +17.8° С 3 6 50 км - облачно с прояснениями 752 764 +0.2 43% +5° 1 км - - - -
13:00 +19° С 4 8 50 км - облачно с прояснениями 752 764 +0.5 42% +5.8° 1 км - - - -
10:00 +17° С 4 9 более 50 км - переменная облачность 752 764 +1.1 63% +9.8° 1 км - - - -
07:00 +12.8° С 2 5 50 км - переменная облачность 751 763 +1.1 91% +11.3° 1 км 0.5 Влажная (без луж) - -
04:00 +13.2° З,С-З 2 4 10 км небо без изменений {ливневые осадки} облачно 749 761 +1.3 96% +12.6° 1 км - - - -
01:00 +14.8° З,С-З 2 5 10 км - переменная облачность 748 760 +1.2 89% +13° - - - - -
Четверг, 16 Августа
Время местн. Темп Ветер Видим Явления Облачность нижн/средн/верх Атм. давл. Влжн Точка росы ВНГО R Сост. почвы Tg s
Напр Скр Прв ур.ст ур.м изм
22:00 +17.3° З,С-З 3 5 10 км зарница облачно с прояснениями 747 759 +1.1 87% +15.1° 1 км - - - -
19:00 +22.3° Ю-З 3 4 50 км ливневый дождь переменная облачность 746 757 -1.1 68% +16.2° 1 км 0 - - -
16:00 +23.1° Ю,Ю-З 4 8 50 км небо без изменений {ливневые осадки} преимущественно облачно 747 759 -0.5 60% +14.9° 1 км - - - -
13:00 +17.8° Ю 3 6 30 км ливневый дождь преимущественно облачно 747 759 -0.2 84% +15.1° 1 км - - - -
10:00 +17° Ю 2 5 более 50 км небо без изменений {ливневые осадки} преимущественно облачно 748 759 -2 71% +11.7° 1 км - - - -
07:00 +15° Ю,Ю-В 1 2 50 км - преимущественно облачно 750 762 -1.1 76% +10.9° 1 км 0 Сухая (без трещин) - -
04:00 +13.8° штиль 0 0 10 км - преимущественно облачно 751 763 -0.1 79% +10.2° - - - - -
01:00 +12.2° штиль 0 0 10 км - ясно 751 763 +0.3 92% +10.9° более 2.5 км - - - -
Среда, 15 Августа
Время местн. Темп Ветер Видим Явления Облачность нижн/средн/верх Атм. давл. Влжн Точка росы ВНГО R Сост. почвы Tg s
Напр Скр Прв ур.ст ур.м изм
22:00 +14.8° штиль 0 0 10 км - ясно 750 762 -0.2 78% +11.1° более 2.5 км - - - -
19:00 +19.9° З 1 2 50 км - облачно с прояснениями 751 762 +0.2 48% +8.6° 1 км 0 - - -
16:00 +21° З 3 5 50 км - облачно с прояснениями 750 762 +0.5 47% +9.2° 1 км - - - -
13:00 +20.7° С-З 3 5 50 км - переменная облачность 750 762 +0.2 46% +8.8° 1 км - - - -
10:00 +18.1° З 1 2 50 км - ясно 750 762 +0.8 68% +12° более 2.5 км - - - -
07:00 +12.4° З,С-З 1 2 50 км - ясно 749 761 +1.1 89% +10.6° более 2.5 км 2 Влажная (без луж) - -
04:00 +10.8° С-З 1 2 10 км - ясно 748 760 +0.8 94% +9.8° более 2.5 км - - - -
01:00 +12.6° З 2 4 10 км - переменная облачность 747 759 -0.2 92% +11.4° более 2.5 км - - - -